Time,TemperatureF,DewpointF,PressureIn,WindDirection,WindDirectionDegrees,WindSpeedMPH,WindSpeedGustMPH,Humidity,HourlyPrecipIn,Conditions,Clouds,dailyrainin,SoftwareType,DateUTC
2013-01-06 00:01:00,40.3,9.8,17.72,North,357,4.9,4.9,28,0.00,,CLR,0.00,VWS V14.01,2013-01-06 07:01:00,
2013-01-06 00:07:00,40.3,9.8,17.72,North,1,4.0,4.0,28,0.00,,CLR,0.00,VWS V14.01,2013-01-06 07:07:00,
2013-01-06 00:13:00,40.3,9.8,17.72,North,1,3.6,3.6,28,0.00,,CLR,0.00,VWS V14.01,2013-01-06 07:13:00,
2013-01-06 00:18:00,40.3,10.6,17.72,North,1,4.9,4.9,29,0.00,,CLR,0.00,VWS V14.01,2013-01-06 07:18:00,
2013-01-06 00:24:00,40.1,10.4,17.72,North,3,5.4,5.8,29,0.00,,CLR,0.00,VWS V14.01,2013-01-06 07:24:00,
2013-01-06 00:30:00,40.1,10.4,17.72,North,3,4.0,4.0,29,0.00,,CLR,0.00,VWS V14.01,2013-01-06 07:30:00,
2013-01-06 00:35:00,39.9,10.2,17.72,North,3,3.1,4.0,29,0.00,,CLR,0.00,VWS V14.01,2013-01-06 07:35:00,
2013-01-06 00:41:00,39.7,10.1,17.72,North,1,4.5,4.5,29,0.00,,CLR,0.00,VWS V14.01,2013-01-06 07:41:00,
2013-01-06 00:46:00,39.7,10.1,17.72,North,3,5.8,5.8,29,0.00,,CLR,0.00,VWS V14.01,2013-01-06 07:46:00,
2013-01-06 00:52:00,39.7,10.1,17.72,North,1,4.9,4.9,29,0.00,,CLR,0.00,VWS V14.01,2013-01-06 07:52:00,
2013-01-06 00:58:00,39.6,9.9,17.72,North,10,5.4,5.4,29,0.00,,CLR,0.00,VWS V14.01,2013-01-06 07:58:00,
2013-01-06 01:03:00,39.6,9.9,17.72,North,10,4.0,4.5,29,0.00,,CLR,0.00,VWS V14.01,2013-01-06 08:03:00,
2013-01-06 01:09:00,39.6,9.9,17.72,North,10,4.0,4.0,29,0.00,,CLR,0.00,VWS V14.01,2013-01-06 08:09:00,
2013-01-06 01:15:00,39.6,9.9,17.72,North,10,4.0,4.0,29,0.00,,CLR,0.00,VWS V14.01,2013-01-06 08:15:00,
2013-01-06 01:21:00,39.6,9.9,17.72,North,10,4.5,4.5,29,0.00,,CLR,0.00,VWS V14.01,2013-01-06 08:21:00,
2013-01-06 01:27:00,39.7,10.1,17.72,North,10,4.0,4.0,29,0.00,,CLR,0.00,VWS V14.01,2013-01-06 08:27:00,
2013-01-06 01:32:00,39.7,10.1,17.72,North,10,4.0,4.0,29,0.00,,CLR,0.00,VWS V14.01,2013-01-06 08:32:00,
2013-01-06 01:38:00,39.9,10.2,17.72,North,10,4.9,5.4,29,0.00,,CLR,0.00,VWS V14.01,2013-01-06 08:38:00,
2013-01-06 01:44:00,39.9,10.2,17.72,North,10,4.5,4.5,29,0.00,,CLR,0.00,VWS V14.01,2013-01-06 08:44:00,
2013-01-06 01:49:00,39.9,10.2,17.72,North,10,4.5,4.5,29,0.00,,CLR,0.00,VWS V14.01,2013-01-06 08:49:00,
2013-01-06 01:54:00,39.9,10.2,17.72,North,10,4.0,4.0,29,0.00,,CLR,0.00,VWS V14.01,2013-01-06 08:54:00,
2013-01-06 01:59:00,39.9,10.2,17.72,North,10,3.6,4.0,29,0.00,,CLR,0.00,VWS V14.01,2013-01-06 08:59:00,
2013-01-06 02:05:00,39.9,10.2,17.72,North,10,3.1,3.1,29,0.00,,CLR,0.00,VWS V14.01,2013-01-06 09:05:00,
2013-01-06 02:10:00,39.9,10.2,17.72,North,10,2.7,3.6,29,0.00,,CLR,0.00,VWS V14.01,2013-01-06 09:10:00,
2013-01-06 02:16:00,39.7,10.1,17.72,North,10,4.0,4.0,29,0.00,,CLR,0.00,VWS V14.01,2013-01-06 09:16:00,
2013-01-06 02:21:00,39.7,10.1,17.72,North,10,2.7,4.0,29,0.00,,CLR,0.00,VWS V14.01,2013-01-06 09:21:00,
2013-01-06 02:27:00,39.6,9.9,17.72,North,10,0.0,0.0,29,0.00,,CLR,0.00,VWS V14.01,2013-01-06 09:27:00,
2013-01-06 02:33:00,39.4,9.8,17.72,North,10,0.0,0.0,29,0.00,,CLR,0.00,VWS V14.01,2013-01-06 09:33:00,
2013-01-06 02:38:00,39.2,9.6,17.72,North,10,0.0,0.0,29,0.00,,CLR,0.00,VWS V14.01,2013-01-06 09:38:00,
2013-01-06 02:44:00,39.0,10.2,17.72,North,10,0.0,0.0,30,0.00,,CLR,0.00,VWS V14.01,2013-01-06 09:44:00,
2013-01-06 02:50:00,39.0,10.2,17.72,North,10,0.0,0.0,30,0.00,,CLR,0.00,VWS V14.01,2013-01-06 09:50:00,
2013-01-06 02:55:00,38.8,10.1,17.72,North,5,0.0,0.0,30,0.00,,CLR,0.00,VWS V14.01,2013-01-06 09:55:00,
2013-01-06 03:00:00,38.8,10.1,17.72,North,2,4.0,4.0,30,0.00,,CLR,0.00,VWS V14.01,2013-01-06 10:00:00,
2013-01-06 03:06:00,38.8,10.1,17.72,North,1,4.0,5.4,30,0.00,,CLR,0.00,VWS V14.01,2013-01-06 10:06:00,
2013-01-06 03:12:00,38.8,10.1,17.72,North,357,4.0,4.0,30,0.00,,CLR,0.00,VWS V14.01,2013-01-06 10:12:00,
2013-01-06 03:17:00,38.8,10.1,17.72,North,357,4.5,4.5,30,0.00,,CLR,0.00,VWS V14.01,2013-01-06 10:17:00,
2013-01-06 03:22:00,38.8,10.1,17.72,North,357,4.0,4.0,30,0.00,,CLR,0.00,VWS V14.01,2013-01-06 10:22:00,
2013-01-06 03:28:00,38.8,10.1,17.72,North,5,4.0,4.9,30,0.00,,CLR,0.00,VWS V14.01,2013-01-06 10:28:00,
2013-01-06 03:33:00,38.8,10.1,17.72,North,5,0.0,2.2,30,0.00,,CLR,0.00,VWS V14.01,2013-01-06 10:33:00,
2013-01-06 03:38:00,38.8,10.1,17.72,North,5,0.0,0.0,30,0.00,,CLR,0.00,VWS V14.01,2013-01-06 10:38:00,
2013-01-06 03:44:00,38.8,10.1,17.72,North,5,0.0,0.0,30,0.00,,CLR,0.00,VWS V14.01,2013-01-06 10:44:00,
2013-01-06 03:49:00,38.8,10.1,17.72,North,5,0.0,0.0,30,0.00,,CLR,0.00,VWS V14.01,2013-01-06 10:49:00,
2013-01-06 03:55:00,38.8,10.1,17.72,North,5,0.0,0.0,30,0.00,,CLR,0.00,VWS V14.01,2013-01-06 10:55:00,
2013-01-06 04:00:00,38.8,10.1,17.72,North,5,0.0,0.0,30,0.00,,CLR,0.00,VWS V14.01,2013-01-06 11:00:00,
2013-01-06 04:06:00,38.7,9.9,17.72,North,5,0.0,0.0,30,0.00,,CLR,0.00,VWS V14.01,2013-01-06 11:06:00,
2013-01-06 04:12:00,38.5,9.8,17.72,NW,313,4.0,4.0,30,0.00,,CLR,0.00,VWS V14.01,2013-01-06 11:12:00,
2013-01-06 04:17:00,38.5,9.8,17.72,NW,313,4.0,4.0,30,0.00,,CLR,0.00,VWS V14.01,2013-01-06 11:17:00,
2013-01-06 04:23:00,38.7,10.6,17.72,NW,324,4.0,4.0,31,0.00,,CLR,0.00,VWS V14.01,2013-01-06 11:23:00,
2013-01-06 04:29:00,38.7,10.6,17.72,NW,324,3.6,3.6,31,0.00,,CLR,0.00,VWS V14.01,2013-01-06 11:29:00,
2013-01-06 04:34:00,38.5,10.5,17.72,NNW,327,4.0,4.0,31,0.00,,CLR,0.00,VWS V14.01,2013-01-06 11:34:00,
2013-01-06 04:39:00,38.3,10.3,17.72,North,3,5.4,5.4,31,0.00,,CLR,0.00,VWS V14.01,2013-01-06 11:39:00,
2013-01-06 04:45:00,38.1,10.2,17.72,North,3,3.6,4.0,31,0.00,,CLR,0.00,VWS V14.01,2013-01-06 11:45:00,
2013-01-06 04:50:00,38.1,10.2,17.72,North,3,2.7,2.7,31,0.00,,CLR,0.00,VWS V14.01,2013-01-06 11:50:00,
2013-01-06 04:55:00,38.3,10.3,17.72,North,3,2.7,2.7,31,0.00,,CLR,0.00,VWS V14.01,2013-01-06 11:55:00,
2013-01-06 05:01:00,37.9,10.0,17.72,North,4,4.0,4.0,31,0.00,,CLR,0.00,VWS V14.01,2013-01-06 12:01:00,
2013-01-06 05:06:00,37.9,10.0,17.72,North,4,2.7,2.7,31,0.00,,CLR,0.00,VWS V14.01,2013-01-06 12:06:00,
2013-01-06 05:12:00,38.3,10.3,17.72,North,5,3.1,3.1,31,0.00,,CLR,0.00,VWS V14.01,2013-01-06 12:12:00,
2013-01-06 05:18:00,38.5,10.5,17.72,North,5,0.0,0.0,31,0.00,,CLR,0.00,VWS V14.01,2013-01-06 12:18:00,
2013-01-06 05:24:00,38.5,10.5,17.72,WNW,300,4.0,4.0,31,0.00,,CLR,0.00,VWS V14.01,2013-01-06 12:24:00,
2013-01-06 05:29:00,38.5,10.5,17.72,WNW,295,3.6,3.6,31,0.00,,CLR,0.00,VWS V14.01,2013-01-06 12:29:00,
2013-01-06 05:34:00,38.5,10.5,17.72,NW,308,4.0,4.0,31,0.00,,CLR,0.00,VWS V14.01,2013-01-06 12:34:00,
2013-01-06 05:39:00,38.5,10.5,17.72,NNW,346,4.0,4.0,31,0.00,,CLR,0.00,VWS V14.01,2013-01-06 12:39:00,
2013-01-06 05:45:00,38.5,10.5,17.72,NNW,342,3.1,3.1,31,0.00,,CLR,0.00,VWS V14.01,2013-01-06 12:45:00,
2013-01-06 05:50:00,38.5,10.5,17.72,NNW,342,4.0,4.9,31,0.00,,CLR,0.00,VWS V14.01,2013-01-06 12:50:00,
2013-01-06 05:55:00,38.5,10.5,17.72,North,7,5.4,5.4,31,0.00,,CLR,0.00,VWS V14.01,2013-01-06 12:55:00,
2013-01-06 06:01:00,38.5,10.5,17.72,North,2,5.4,5.4,31,0.00,,CLR,0.00,VWS V14.01,2013-01-06 13:01:00,
2013-01-06 06:07:00,38.5,10.5,17.72,North,10,4.0,4.0,31,0.00,,CLR,0.00,VWS V14.01,2013-01-06 13:07:00,
2013-01-06 06:12:00,38.5,10.5,17.72,North,10,3.6,3.6,31,0.00,,CLR,0.00,VWS V14.01,2013-01-06 13:12:00,
2013-01-06 06:17:00,38.5,10.5,17.72,North,10,0.0,2.2,31,0.00,,CLR,0.00,VWS V14.01,2013-01-06 13:17:00,
2013-01-06 06:23:00,38.7,10.6,17.72,North,10,0.0,0.0,31,0.00,,CLR,0.00,VWS V14.01,2013-01-06 13:23:00,
2013-01-06 06:29:00,38.7,10.6,17.72,North,9,3.1,4.0,31,0.00,,CLR,0.00,VWS V14.01,2013-01-06 13:29:00,
2013-01-06 06:34:00,38.7,10.6,17.72,North,9,0.0,0.0,31,0.00,,CLR,0.00,VWS V14.01,2013-01-06 13:34:00,
2013-01-06 06:40:00,38.5,11.2,17.72,North,10,3.6,3.6,32,0.00,,CLR,0.00,VWS V14.01,2013-01-06 13:40:00,
2013-01-06 06:46:00,38.5,11.2,17.72,NNE,18,3.1,3.1,32,0.00,,CLR,0.00,VWS V14.01,2013-01-06 13:46:00,
2013-01-06 06:51:00,38.7,11.4,17.72,NNE,27,3.6,3.6,32,0.00,,CLR,0.00,VWS V14.01,2013-01-06 13:51:00,
2013-01-06 06:57:00,38.8,11.5,17.72,NE,48,4.0,4.0,32,0.00,,CLR,0.00,VWS V14.01,2013-01-06 13:57:00,
2013-01-06 07:02:00,39.2,11.1,17.72,NE,48,4.0,4.0,31,0.00,,CLR,0.00,VWS V14.01,2013-01-06 14:02:00,
2013-01-06 07:07:00,39.6,11.4,17.72,NE,45,3.6,3.6,31,0.00,,CLR,0.00,VWS V14.01,2013-01-06 14:07:00,
2013-01-06 07:12:00,39.7,11.6,17.72,NE,45,0.0,2.7,31,0.00,,CLR,0.00,VWS V14.01,2013-01-06 14:12:00,
2013-01-06 07:17:00,39.7,10.9,17.72,NE,45,0.0,0.0,30,0.00,,CLR,0.00,VWS V14.01,2013-01-06 14:17:00,
2013-01-06 07:23:00,39.7,10.9,17.72,NE,45,0.0,0.0,30,0.00,,CLR,0.00,VWS V14.01,2013-01-06 14:23:00,
2013-01-06 07:28:00,39.4,11.3,17.72,NE,45,0.0,0.0,31,0.00,,CLR,0.00,VWS V14.01,2013-01-06 14:28:00,
2013-01-06 07:33:00,39.2,11.1,17.72,NE,45,0.0,0.0,31,0.00,,CLR,0.00,VWS V14.01,2013-01-06 14:33:00,
2013-01-06 07:39:00,39.0,11.0,17.72,NE,45,0.0,0.0,31,0.00,,CLR,0.00,VWS V14.01,2013-01-06 14:39:00,
2013-01-06 07:44:00,38.8,10.8,17.72,NE,45,0.0,0.0,31,0.00,,CLR,0.00,VWS V14.01,2013-01-06 14:44:00,
2013-01-06 07:49:00,38.7,10.6,17.72,West,276,4.0,4.0,31,0.00,,CLR,0.00,VWS V14.01,2013-01-06 14:49:00,
2013-01-06 07:54:00,38.7,10.6,17.72,West,275,3.6,3.6,31,0.00,,CLR,0.00,VWS V14.01,2013-01-06 14:54:00,
2013-01-06 08:00:00,38.5,11.2,17.72,West,275,3.1,3.1,32,0.00,,CLR,0.00,VWS V14.01,2013-01-06 15:00:00,
2013-01-06 08:05:00,38.3,11.7,17.72,North,353,3.6,3.6,33,0.00,,CLR,0.00,VWS V14.01,2013-01-06 15:05:00,
2013-01-06 08:11:00,38.3,11.7,17.72,North,353,4.0,4.0,33,0.00,,CLR,0.00,VWS V14.01,2013-01-06 15:11:00,
2013-01-06 08:17:00,38.1,12.2,17.72,North,10,4.9,4.9,34,0.00,,CLR,0.00,VWS V14.01,2013-01-06 15:17:00,
2013-01-06 08:22:00,38.5,11.9,17.72,NNE,19,5.4,5.4,33,0.00,,CLR,0.00,VWS V14.01,2013-01-06 15:22:00,
2013-01-06 08:28:00,38.8,11.5,17.72,NNE,16,4.9,4.9,32,0.00,,CLR,0.00,VWS V14.01,2013-01-06 15:28:00,
2013-01-06 08:33:00,38.8,11.5,17.72,NNE,16,3.6,3.6,32,0.00,,CLR,0.00,VWS V14.01,2013-01-06 15:33:00,
2013-01-06 08:39:00,40.3,12.1,17.72,NNE,17,2.7,3.6,31,0.00,,CLR,0.00,VWS V14.01,2013-01-06 15:39:00,
2013-01-06 08:45:00,41.2,12.1,17.72,NE,50,4.5,4.5,30,0.00,,CLR,0.00,VWS V14.01,2013-01-06 15:45:00,
2013-01-06 08:50:00,41.7,12.6,17.72,NE,50,2.7,2.7,30,0.00,,CLR,0.00,VWS V14.01,2013-01-06 15:50:00,
2013-01-06 08:56:00,41.7,12.6,17.72,NE,50,0.0,0.0,30,0.00,,CLR,0.00,VWS V14.01,2013-01-06 15:56:00,
2013-01-06 09:01:00,41.7,11.8,17.72,NE,50,0.0,0.0,29,0.00,,CLR,0.00,VWS V14.01,2013-01-06 16:01:00,
2013-01-06 09:06:00,41.5,11.7,17.72,SW,216,4.0,4.9,29,0.00,,CLR,0.00,VWS V14.01,2013-01-06 16:06:00,
2013-01-06 09:11:00,41.4,11.5,17.72,SW,216,2.7,2.7,29,0.00,,CLR,0.00,VWS V14.01,2013-01-06 16:11:00,
2013-01-06 09:16:00,41.4,12.3,17.72,SW,216,0.0,0.0,30,0.00,,CLR,0.00,VWS V14.01,2013-01-06 16:16:00,
2013-01-06 09:22:00,41.7,12.6,17.72,SW,216,0.0,0.0,30,0.00,,CLR,0.00,VWS V14.01,2013-01-06 16:22:00,
2013-01-06 09:27:00,41.7,12.6,17.72,SW,216,0.0,0.0,30,0.00,,CLR,0.00,VWS V14.01,2013-01-06 16:27:00,
2013-01-06 09:32:00,43.2,13.8,17.72,SW,216,0.0,0.0,30,0.00,,CLR,0.00,VWS V14.01,2013-01-06 16:32:00,
2013-01-06 09:38:00,44.6,15.1,17.72,SW,216,0.0,0.0,30,0.00,,CLR,0.00,VWS V14.01,2013-01-06 16:38:00,
2013-01-06 09:43:00,45.9,15.4,17.72,SW,216,0.0,0.0,29,0.00,,CLR,0.00,VWS V14.01,2013-01-06 16:43:00,
2013-01-06 09:49:00,45.9,15.4,17.72,West,269,3.6,3.6,29,0.00,,CLR,0.00,VWS V14.01,2013-01-06 16:49:00,
2013-01-06 09:55:00,46.9,15.6,17.72,WSW,247,0.0,2.7,28,0.00,,CLR,0.00,VWS V14.01,2013-01-06 16:55:00,
2013-01-06 10:00:00,47.3,15.9,17.72,West,266,4.0,4.0,28,0.00,,CLR,0.00,VWS V14.01,2013-01-06 17:00:00,
2013-01-06 10:05:00,47.3,15.9,17.72,WSW,255,4.0,4.0,28,0.00,,CLR,0.00,VWS V14.01,2013-01-06 17:05:00,
2013-01-06 10:11:00,47.5,16.0,17.72,WNW,283,3.6,4.0,28,0.00,,CLR,0.00,VWS V14.01,2013-01-06 17:11:00,
2013-01-06 10:16:00,47.5,16.8,17.72,WNW,285,0.0,0.0,29,0.00,,CLR,0.00,VWS V14.01,2013-01-06 17:16:00,
2013-01-06 10:21:00,47.8,17.1,17.72,NNE,24,3.6,3.6,29,0.00,,CLR,0.00,VWS V14.01,2013-01-06 17:21:00,
2013-01-06 10:27:00,47.7,16.2,17.72,NE,42,6.3,6.3,28,0.00,,CLR,0.00,VWS V14.01,2013-01-06 17:27:00,
2013-01-06 10:32:00,47.7,16.2,17.72,NE,38,6.3,6.3,28,0.00,,CLR,0.00,VWS V14.01,2013-01-06 17:32:00,
2013-01-06 10:38:00,47.5,16.0,17.72,ENE,64,5.4,5.4,28,0.00,,CLR,0.00,VWS V14.01,2013-01-06 17:38:00,
2013-01-06 10:43:00,48.6,16.1,17.72,ENE,64,4.0,4.0,27,0.00,,CLR,0.00,VWS V14.01,2013-01-06 17:43:00,
2013-01-06 10:49:00,49.1,16.6,17.72,ENE,64,2.2,2.2,27,0.00,,CLR,0.00,VWS V14.01,2013-01-06 17:49:00,
2013-01-06 10:54:00,49.8,17.2,17.72,ENE,64,0.0,0.0,27,0.00,,CLR,0.00,VWS V14.01,2013-01-06 17:54:00,
2013-01-06 11:00:00,50.5,17.0,17.72,ENE,66,0.0,0.0,26,0.00,,CLR,0.00,VWS V14.01,2013-01-06 18:00:00,
2013-01-06 11:05:00,50.9,15.4,17.72,ENE,66,0.0,0.0,24,0.00,,CLR,0.00,VWS V14.01,2013-01-06 18:05:00,
2013-01-06 11:10:00,50.5,15.1,17.72,ENE,67,0.0,0.0,24,0.00,,CLR,0.00,VWS V14.01,2013-01-06 18:10:00,
2013-01-06 11:16:00,50.7,15.3,17.72,ENE,67,3.1,3.1,24,0.00,,CLR,0.00,VWS V14.01,2013-01-06 18:16:00,
2013-01-06 11:22:00,50.9,15.4,17.72,East,101,3.1,3.1,24,0.00,,CLR,0.00,VWS V14.01,2013-01-06 18:22:00,
2013-01-06 11:28:00,51.3,15.7,17.72,SE,138,4.0,4.0,24,0.00,,CLR,0.00,VWS V14.01,2013-01-06 18:28:00,
2013-01-06 11:33:00,51.1,15.6,17.72,SE,145,2.7,3.6,24,0.00,,CLR,0.00,VWS V14.01,2013-01-06 18:33:00,
2013-01-06 11:39:00,51.4,15.9,17.72,SE,139,3.1,3.1,24,0.00,,CLR,0.00,VWS V14.01,2013-01-06 18:39:00,
2013-01-06 11:44:00,51.6,16.0,17.72,SSW,192,5.8,6.3,24,0.00,,CLR,0.00,VWS V14.01,2013-01-06 18:44:00,
2013-01-06 11:49:00,51.8,15.2,17.72,SW,220,6.3,6.3,23,0.00,,CLR,0.00,VWS V14.01,2013-01-06 18:49:00,
2013-01-06 11:55:00,52.0,15.4,17.72,SW,228,7.2,7.2,23,0.00,,CLR,0.00,VWS V14.01,2013-01-06 18:55:00,
2013-01-06 12:01:00,51.8,15.2,17.72,SSW,192,3.1,3.1,23,0.00,,CLR,0.00,VWS V14.01,2013-01-06 19:01:00,
2013-01-06 12:07:00,51.6,16.0,17.72,SW,215,2.7,4.9,24,0.00,,CLR,0.00,VWS V14.01,2013-01-06 19:07:00,
2013-01-06 12:13:00,52.0,15.4,17.72,SW,215,0.0,0.0,23,0.00,,CLR,0.00,VWS V14.01,2013-01-06 19:13:00,
2013-01-06 12:18:00,52.5,15.8,17.72,SW,215,0.0,0.0,23,0.00,,CLR,0.00,VWS V14.01,2013-01-06 19:18:00,
2013-01-06 12:24:00,53.1,16.3,17.72,SW,215,2.7,2.7,23,0.00,,CLR,0.00,VWS V14.01,2013-01-06 19:24:00,
2013-01-06 12:30:00,53.2,16.4,17.72,SW,215,0.0,0.0,23,0.00,,CLR,0.00,VWS V14.01,2013-01-06 19:30:00,
2013-01-06 12:36:00,53.8,16.9,17.72,SW,215,0.0,0.0,23,0.00,,CLR,0.00,VWS V14.01,2013-01-06 19:36:00,
2013-01-06 12:48:00,54.5,17.5,17.72,WSW,245,5.4,5.4,23,0.00,,CLR,0.00,VWS V14.01,2013-01-06 19:48:00,
2013-01-06 12:53:00,54.7,14.4,17.72,WNW,288,4.0,4.0,20,0.00,,CLR,0.00,VWS V14.01,2013-01-06 19:53:00,
2013-01-06 12:58:00,54.7,14.4,17.72,West,280,5.8,5.8,20,0.00,,CLR,0.00,VWS V14.01,2013-01-06 19:58:00,
2013-01-06 13:04:00,54.9,14.6,17.72,West,270,5.4,5.4,20,0.00,,CLR,0.00,VWS V14.01,2013-01-06 20:04:00,
2013-01-06 13:09:00,54.9,14.6,17.72,WNW,297,5.8,5.8,20,0.00,,CLR,0.00,VWS V14.01,2013-01-06 20:09:00,
2013-01-06 13:13:00,54.9,14.6,17.72,WNW,288,5.8,5.8,20,0.00,,CLR,0.00,VWS V14.01,2013-01-06 20:13:00,
2013-01-06 13:19:00,55.0,14.7,17.72,WSW,238,2.7,2.7,20,0.00,,CLR,0.00,VWS V14.01,2013-01-06 20:19:00,
2013-01-06 13:25:00,55.9,15.5,17.72,WSW,253,4.5,4.5,20,0.00,,CLR,0.00,VWS V14.01,2013-01-06 20:25:00,
2013-01-06 13:31:00,56.7,16.1,17.72,WSW,253,3.6,3.6,20,0.00,,CLR,0.00,VWS V14.01,2013-01-06 20:31:00,
2013-01-06 13:36:00,56.7,16.1,17.72,SW,227,4.0,4.0,20,0.00,,CLR,0.00,VWS V14.01,2013-01-06 20:36:00,
2013-01-06 13:41:00,56.7,16.1,17.72,WSW,258,6.7,6.7,20,0.00,,CLR,0.00,VWS V14.01,2013-01-06 20:41:00,
2013-01-06 13:47:00,56.7,16.1,17.72,SW,230,7.2,7.2,20,0.00,,CLR,0.00,VWS V14.01,2013-01-06 20:47:00,
2013-01-06 13:53:00,56.1,15.6,17.72,West,276,5.4,5.4,20,0.00,,CLR,0.00,VWS V14.01,2013-01-06 20:53:00,
2013-01-06 13:59:00,56.1,15.6,17.72,WSW,241,3.1,3.1,20,0.00,,CLR,0.00,VWS V14.01,2013-01-06 20:59:00,
2013-01-06 14:04:00,56.1,15.6,17.72,West,270,4.9,4.9,20,0.00,,CLR,0.00,VWS V14.01,2013-01-06 21:04:00,
2013-01-06 14:06:00,56.1,15.6,17.72,WSW,239,3.1,4.9,20,0.00,,CLR,0.00,VWS V14.01,2013-01-06 21:06:00,
2013-01-06 14:12:00,56.7,16.1,17.72,West,270,5.4,5.4,20,0.00,,CLR,0.00,VWS V14.01,2013-01-06 21:12:00,
2013-01-06 14:18:00,56.5,15.9,17.72,West,271,3.6,3.6,20,0.00,,CLR,0.00,VWS V14.01,2013-01-06 21:18:00,
2013-01-06 14:23:00,56.7,16.1,17.72,West,270,3.1,3.1,20,0.00,,CLR,0.00,VWS V14.01,2013-01-06 21:23:00,
2013-01-06 14:28:00,57.2,15.3,17.72,WSW,250,3.6,3.6,19,0.00,,CLR,0.00,VWS V14.01,2013-01-06 21:28:00,
2013-01-06 14:33:00,57.6,15.6,17.72,SW,227,3.1,3.1,19,0.00,,CLR,0.00,VWS V14.01,2013-01-06 21:33:00,
2013-01-06 14:39:00,58.1,16.1,17.72,WSW,247,4.0,4.0,19,0.00,,CLR,0.00,VWS V14.01,2013-01-06 21:39:00,
2013-01-06 14:44:00,58.5,16.4,17.72,WSW,250,3.6,3.6,19,0.00,,CLR,0.00,VWS V14.01,2013-01-06 21:44:00,
2013-01-06 14:49:00,58.8,16.7,17.72,SW,235,4.9,4.9,19,0.00,,CLR,0.00,VWS V14.01,2013-01-06 21:49:00,
2013-01-06 14:54:00,58.8,16.7,17.72,West,277,4.0,4.0,19,0.00,,CLR,0.00,VWS V14.01,2013-01-06 21:54:00,
2013-01-06 15:00:00,59.0,16.8,17.72,WSW,250,2.2,3.1,19,0.00,,CLR,0.00,VWS V14.01,2013-01-06 22:00:00,
2013-01-06 15:05:00,59.7,17.4,17.72,WSW,247,2.7,3.1,19,0.00,,CLR,0.00,VWS V14.01,2013-01-06 22:05:00,
2013-01-06 15:11:00,60.6,15.6,17.72,WNW,286,4.0,4.0,17,0.00,,CLR,0.00,VWS V14.01,2013-01-06 22:11:00,
2013-01-06 15:16:00,61.7,15.1,17.72,WSW,247,4.0,4.0,16,0.00,,CLR,0.00,VWS V14.01,2013-01-06 22:16:00,
2013-01-06 15:22:00,61.7,15.1,17.72,West,277,3.6,3.6,16,0.00,,CLR,0.00,VWS V14.01,2013-01-06 22:22:00,
2013-01-06 15:28:00,63.0,16.1,17.72,SW,233,4.0,4.0,16,0.00,,CLR,0.00,VWS V14.01,2013-01-06 22:28:00,
2013-01-06 15:33:00,62.4,15.7,17.72,WSW,248,4.0,4.0,16,0.00,,CLR,0.00,VWS V14.01,2013-01-06 22:33:00,
2013-01-06 15:39:00,62.4,15.7,17.72,WSW,241,5.8,5.8,16,0.00,,CLR,0.00,VWS V14.01,2013-01-06 22:39:00,
2013-01-06 15:45:00,62.4,15.7,17.72,SW,227,4.0,4.0,16,0.00,,CLR,0.00,VWS V14.01,2013-01-06 22:45:00,
2013-01-06 15:51:00,63.1,16.2,17.72,WSW,248,5.4,6.3,16,0.00,,CLR,0.00,VWS V14.01,2013-01-06 22:51:00,
2013-01-06 15:56:00,63.3,16.4,17.72,SW,229,4.0,4.0,16,0.00,,CLR,0.00,VWS V14.01,2013-01-06 22:56:00,
2013-01-06 16:01:00,63.5,16.5,17.72,SW,236,2.7,4.9,16,0.00,,CLR,0.00,VWS V14.01,2013-01-06 23:01:00,
2013-01-06 16:06:00,63.5,16.5,17.72,WSW,251,3.6,3.6,16,0.00,,CLR,0.00,VWS V14.01,2013-01-06 23:06:00,
2013-01-06 16:12:00,63.1,16.2,17.72,WNW,294,3.6,3.6,16,0.00,,CLR,0.00,VWS V14.01,2013-01-06 23:12:00,
2013-01-06 16:17:00,63.0,16.1,17.72,WSW,251,4.0,4.0,16,0.00,,CLR,0.00,VWS V14.01,2013-01-06 23:17:00,
2013-01-06 16:22:00,63.0,16.1,17.72,West,259,4.0,4.0,16,0.00,,CLR,0.00,VWS V14.01,2013-01-06 23:22:00,
2013-01-06 16:28:00,63.0,16.1,17.72,WNW,295,4.0,6.3,16,0.00,,CLR,0.00,VWS V14.01,2013-01-06 23:28:00,
2013-01-06 16:34:00,59.2,14.4,17.72,WNW,294,3.6,3.6,17,0.00,,CLR,0.00,VWS V14.01,2013-01-06 23:34:00,
2013-01-06 16:40:00,58.5,13.8,17.72,WNW,294,0.0,0.0,17,0.00,,CLR,0.00,VWS V14.01,2013-01-06 23:40:00,
2013-01-06 16:46:00,58.1,13.5,17.72,WNW,294,0.0,0.0,17,0.00,,CLR,0.00,VWS V14.01,2013-01-06 23:46:00,
2013-01-06 16:51:00,57.6,13.1,17.72,WNW,294,0.0,0.0,17,0.00,,CLR,0.00,VWS V14.01,2013-01-06 23:51:00,
2013-01-06 16:57:00,57.4,12.9,17.72,WNW,294,0.0,0.0,17,0.00,,CLR,0.00,VWS V14.01,2013-01-06 23:57:00,
2013-01-06 17:02:00,57.2,12.8,17.72,WNW,294,0.0,0.0,17,0.00,,CLR,0.00,VWS V14.01,2013-01-07 00:02:00,
2013-01-06 17:07:00,57.2,12.8,17.72,WNW,294,0.0,0.0,17,0.00,,CLR,0.00,VWS V14.01,2013-01-07 00:07:00,
2013-01-06 17:13:00,56.7,12.4,17.72,WNW,294,0.0,0.0,17,0.00,,CLR,0.00,VWS V14.01,2013-01-07 00:13:00,
2013-01-06 17:18:00,56.5,12.2,17.72,WNW,294,0.0,0.0,17,0.00,,CLR,0.00,VWS V14.01,2013-01-07 00:18:00,
2013-01-06 17:24:00,56.3,12.1,17.72,WNW,294,0.0,0.0,17,0.00,,CLR,0.00,VWS V14.01,2013-01-07 00:24:00,
2013-01-06 17:29:00,56.3,12.1,17.72,WNW,294,0.0,0.0,17,0.00,,CLR,0.00,VWS V14.01,2013-01-07 00:29:00,
2013-01-06 17:35:00,56.3,12.1,17.72,WNW,294,0.0,0.0,17,0.00,,CLR,0.00,VWS V14.01,2013-01-07 00:35:00,
2013-01-06 17:41:00,56.1,11.9,17.72,WNW,294,0.0,0.0,17,0.00,,CLR,0.00,VWS V14.01,2013-01-07 00:41:00,
2013-01-06 17:46:00,55.9,11.8,17.72,WNW,294,0.0,0.0,17,0.00,,CLR,0.00,VWS V14.01,2013-01-07 00:46:00,
2013-01-06 17:52:00,55.8,11.6,17.72,WNW,294,0.0,0.0,17,0.00,,CLR,0.00,VWS V14.01,2013-01-07 00:52:00,
2013-01-06 17:58:00,55.6,11.5,17.72,WNW,294,0.0,0.0,17,0.00,,CLR,0.00,VWS V14.01,2013-01-07 00:58:00,
2013-01-06 18:04:00,55.6,11.5,17.72,WNW,294,0.0,0.0,17,0.00,,CLR,0.00,VWS V14.01,2013-01-07 01:04:00,
2013-01-06 18:10:00,54.7,12.0,17.72,WNW,294,0.0,0.0,18,0.00,,CLR,0.00,VWS V14.01,2013-01-07 01:10:00,
2013-01-06 18:15:00,54.5,11.9,17.72,WNW,294,0.0,0.0,18,0.00,,CLR,0.00,VWS V14.01,2013-01-07 01:15:00,
2013-01-06 18:21:00,54.5,11.9,17.72,WNW,294,0.0,0.0,18,0.00,,CLR,0.00,VWS V14.01,2013-01-07 01:21:00,
2013-01-06 18:26:00,54.5,11.9,17.72,WNW,294,0.0,0.0,18,0.00,,CLR,0.00,VWS V14.01,2013-01-07 01:26:00,
2013-01-06 18:32:00,54.3,11.7,17.72,WNW,294,0.0,0.0,18,0.00,,CLR,0.00,VWS V14.01,2013-01-07 01:32:00,
2013-01-06 18:37:00,54.1,11.6,17.72,WNW,294,0.0,0.0,18,0.00,,CLR,0.00,VWS V14.01,2013-01-07 01:37:00,
2013-01-06 18:42:00,54.1,11.6,17.72,WNW,294,0.0,0.0,18,0.00,,CLR,0.00,VWS V14.01,2013-01-07 01:42:00,
2013-01-06 18:48:00,53.8,11.3,17.72,WNW,294,0.0,0.0,18,0.00,,CLR,0.00,VWS V14.01,2013-01-07 01:48:00,
2013-01-06 18:53:00,53.6,11.1,17.72,WNW,294,0.0,0.0,18,0.00,,CLR,0.00,VWS V14.01,2013-01-07 01:53:00,
2013-01-06 18:58:00,53.1,10.7,17.72,WNW,294,0.0,0.0,18,0.00,,CLR,0.00,VWS V14.01,2013-01-07 01:58:00,
2013-01-06 19:03:00,53.1,10.7,17.72,WNW,294,0.0,0.0,18,0.00,,CLR,0.00,VWS V14.01,2013-01-07 02:03:00,
2013-01-06 19:09:00,53.1,10.7,17.72,WNW,295,0.0,0.0,18,0.00,,CLR,0.00,VWS V14.01,2013-01-07 02:09:00,
2013-01-06 19:14:00,52.7,10.4,17.72,North,0,4.0,4.0,18,0.00,,CLR,0.00,VWS V14.01,2013-01-07 02:14:00,
2013-01-06 19:20:00,52.5,10.2,17.72,North,0,3.6,3.6,18,0.00,,CLR,0.00,VWS V14.01,2013-01-07 02:20:00,
2013-01-06 19:26:00,52.5,10.2,17.72,North,0,2.7,3.1,18,0.00,,CLR,0.00,VWS V14.01,2013-01-07 02:26:00,
2013-01-06 19:31:00,52.5,10.2,17.72,North,0,2.7,3.6,18,0.00,,CLR,0.00,VWS V14.01,2013-01-07 02:31:00,
2013-01-06 19:37:00,52.5,10.2,17.72,North,0,3.6,3.6,18,0.00,,CLR,0.00,VWS V14.01,2013-01-07 02:37:00,
2013-01-06 19:42:00,51.8,9.7,17.72,North,0,4.0,4.0,18,0.00,,CLR,0.00,VWS V14.01,2013-01-07 02:42:00,
2013-01-06 19:48:00,51.8,9.7,17.72,North,0,4.0,4.0,18,0.00,,CLR,0.00,VWS V14.01,2013-01-07 02:48:00,
2013-01-06 19:54:00,51.6,10.7,17.72,North,0,0.0,0.0,19,0.00,,CLR,0.00,VWS V14.01,2013-01-07 02:54:00,
2013-01-06 19:59:00,51.4,10.6,17.72,North,0,0.0,0.0,19,0.00,,CLR,0.00,VWS V14.01,2013-01-07 02:59:00,
2013-01-06 20:04:00,51.4,10.6,17.72,North,0,0.0,0.0,19,0.00,,FEW100,0.00,VWS V14.01,2013-01-07 03:04:00,
2013-01-06 20:09:00,51.4,10.6,17.72,North,0,0.0,0.0,19,0.00,,FEW100,0.00,VWS V14.01,2013-01-07 03:09:00,
2013-01-06 20:15:00,51.3,10.4,17.72,North,0,0.0,0.0,19,0.00,,FEW100,0.00,VWS V14.01,2013-01-07 03:15:00,
2013-01-06 20:20:00,51.1,10.3,17.72,North,0,0.0,0.0,19,0.00,,FEW100,0.00,VWS V14.01,2013-01-07 03:20:00,
2013-01-06 20:26:00,50.9,10.1,17.72,North,0,0.0,0.0,19,0.00,,FEW100,0.00,VWS V14.01,2013-01-07 03:26:00,
2013-01-06 20:31:00,50.7,10.0,17.72,North,0,0.0,0.0,19,0.00,,FEW100,0.00,VWS V14.01,2013-01-07 03:31:00,
2013-01-06 20:36:00,50.5,9.8,17.72,North,0,0.0,0.0,19,0.00,,FEW100,0.00,VWS V14.01,2013-01-07 03:36:00,
2013-01-06 20:41:00,50.2,9.5,17.72,North,0,0.0,0.0,19,0.00,,FEW100,0.00,VWS V14.01,2013-01-07 03:41:00,
2013-01-06 20:47:00,50.2,9.5,17.72,North,0,0.0,0.0,19,0.00,,FEW100,0.00,VWS V14.01,2013-01-07 03:47:00,
2013-01-06 20:52:00,49.6,9.1,17.72,North,0,0.0,0.0,19,0.00,,FEW100,0.00,VWS V14.01,2013-01-07 03:52:00,
2013-01-06 20:57:00,49.6,9.1,17.72,North,0,0.0,0.0,19,0.00,,FEW100,0.00,VWS V14.01,2013-01-07 03:57:00,
2013-01-06 21:02:00,49.3,8.8,17.72,North,0,0.0,0.0,19,0.00,,CLR,0.00,VWS V14.01,2013-01-07 04:02:00,
2013-01-06 21:08:00,49.3,8.8,17.72,North,0,0.0,0.0,19,0.00,,CLR,0.00,VWS V14.01,2013-01-07 04:08:00,
2013-01-06 21:13:00,48.7,10.6,17.72,North,0,0.0,0.0,21,0.00,,CLR,0.00,VWS V14.01,2013-01-07 04:13:00,
2013-01-06 21:18:00,48.2,10.1,17.72,North,0,0.0,0.0,21,0.00,,CLR,0.00,VWS V14.01,2013-01-07 04:18:00,
2013-01-06 21:23:00,47.7,10.7,17.72,North,0,0.0,0.0,22,0.00,,CLR,0.00,VWS V14.01,2013-01-07 04:23:00,
2013-01-06 21:29:00,47.3,10.4,17.72,North,0,0.0,0.0,22,0.00,,CLR,0.00,VWS V14.01,2013-01-07 04:29:00,
2013-01-06 21:34:00,46.8,9.9,17.72,North,0,0.0,0.0,22,0.00,,CLR,0.00,VWS V14.01,2013-01-07 04:34:00,
2013-01-06 21:40:00,46.4,9.6,17.72,North,0,0.0,0.0,22,0.00,,CLR,0.00,VWS V14.01,2013-01-07 04:40:00,
2013-01-06 21:46:00,46.2,9.5,17.72,North,0,0.0,0.0,22,0.00,,CLR,0.00,VWS V14.01,2013-01-07 04:46:00,
2013-01-06 21:51:00,45.7,9.0,17.72,North,0,0.0,0.0,22,0.00,,CLR,0.00,VWS V14.01,2013-01-07 04:51:00,
2013-01-06 21:57:00,45.7,9.0,17.72,North,0,0.0,0.0,22,0.00,,CLR,0.00,VWS V14.01,2013-01-07 04:57:00,
2013-01-06 22:01:00,45.1,11.4,17.72,North,0,0.0,0.0,25,0.00,,CLR,0.00,VWS V14.01,2013-01-07 05:01:00,
2013-01-06 22:02:00,45.0,11.3,17.72,North,0,0.0,0.0,25,0.00,,CLR,0.00,VWS V14.01,2013-01-07 05:02:00,
2013-01-06 22:03:00,44.8,11.1,17.72,North,0,0.0,0.0,25,0.00,,CLR,0.00,VWS V14.01,2013-01-07 05:03:00,
2013-01-06 22:07:00,44.8,11.1,17.72,North,0,0.0,0.0,25,0.00,,CLR,0.00,VWS V14.01,2013-01-07 05:07:00,
2013-01-06 22:12:00,44.6,11.0,17.72,North,0,0.0,0.0,25,0.00,,CLR,0.00,VWS V14.01,2013-01-07 05:12:00,
2013-01-06 22:18:00,44.6,11.0,17.72,North,0,0.0,0.0,25,0.00,,CLR,0.00,VWS V14.01,2013-01-07 05:18:00,
2013-01-06 22:23:00,43.9,12.9,17.72,North,0,0.0,0.0,28,0.00,,CLR,0.00,VWS V14.01,2013-01-07 05:23:00,
2013-01-06 22:28:00,43.7,12.8,17.72,NNW,327,3.6,3.6,28,0.00,,CLR,0.00,VWS V14.01,2013-01-07 05:28:00,
2013-01-06 22:33:00,43.7,12.8,17.72,WNW,302,3.6,4.0,28,0.00,,CLR,0.00,VWS V14.01,2013-01-07 05:33:00,
2013-01-06 22:39:00,44.1,13.1,17.72,WNW,302,4.0,4.0,28,0.00,,CLR,0.00,VWS V14.01,2013-01-07 05:39:00,
2013-01-06 22:44:00,44.4,13.4,17.72,NW,312,4.0,4.0,28,0.00,,CLR,0.00,VWS V14.01,2013-01-07 05:44:00,
2013-01-06 22:50:00,44.1,13.1,17.72,North,353,3.6,3.6,28,0.00,,CLR,0.00,VWS V14.01,2013-01-07 05:50:00,
2013-01-06 22:56:00,43.7,12.8,17.72,North,353,4.9,4.9,28,0.00,,CLR,0.00,VWS V14.01,2013-01-07 05:56:00,
2013-01-06 23:01:00,43.7,12.8,17.72,North,357,3.6,3.6,28,0.00,,CLR,0.00,VWS V14.01,2013-01-07 06:01:00,
2013-01-06 23:07:00,43.5,12.6,17.72,North,0,4.5,4.9,28,0.00,,CLR,0.00,VWS V14.01,2013-01-07 06:07:00,
2013-01-06 23:12:00,43.3,12.4,17.72,North,5,4.0,4.0,28,0.00,,CLR,0.00,VWS V14.01,2013-01-07 06:12:00,
2013-01-06 23:17:00,43.3,12.4,17.72,North,5,3.1,3.1,28,0.00,,CLR,0.00,VWS V14.01,2013-01-07 06:17:00,
2013-01-06 23:22:00,43.3,12.4,17.72,North,5,4.0,4.0,28,0.00,,CLR,0.00,VWS V14.01,2013-01-07 06:22:00,
2013-01-06 23:28:00,43.3,12.4,17.72,North,5,3.6,3.6,28,0.00,,CLR,0.00,VWS V14.01,2013-01-07 06:28:00,
2013-01-06 23:33:00,42.6,11.8,17.72,North,5,4.0,4.0,28,0.00,,CLR,0.00,VWS V14.01,2013-01-07 06:33:00,
2013-01-06 23:39:00,42.4,11.7,17.72,North,5,5.4,5.4,28,0.00,,CLR,0.00,VWS V14.01,2013-01-07 06:39:00,
2013-01-06 23:44:00,42.4,11.7,17.72,North,5,2.7,2.7,28,0.00,,CLR,0.00,VWS V14.01,2013-01-07 06:44:00,
2013-01-06 23:49:00,42.1,11.3,17.72,North,5,2.2,2.2,28,0.00,,CLR,0.00,VWS V14.01,2013-01-07 06:49:00,
2013-01-06 23:54:00,42.1,11.3,17.72,North,5,0.0,0.0,28,0.00,,CLR,0.00,VWS V14.01,2013-01-07 06:54:00,